createdAt,value
2018-09-09T00:01:58.675Z,4.08
2018-09-09T00:04:27.664Z,3.80
2018-09-09T00:06:56.503Z,4.35
2018-09-09T00:09:30.706Z,4.00
2018-09-09T00:11:59.686Z,4.00
2018-09-09T00:14:28.611Z,3.77
2018-09-09T00:16:57.358Z,3.50
2018-09-09T00:19:26.282Z,3.92
2018-09-09T00:21:55.138Z,3.40
2018-09-09T00:24:24.170Z,3.80
2018-09-09T00:26:53.232Z,3.62
2018-09-09T00:29:22.167Z,3.62
2018-09-09T00:31:51.123Z,3.47
2018-09-09T00:34:20.684Z,3.85
2018-09-09T00:36:49.430Z,4.10
2018-09-09T00:39:18.181Z,3.47
2018-09-09T00:41:47.140Z,3.40
2018-09-09T00:44:15.853Z,3.65
2018-09-09T00:46:44.652Z,2.85
2018-09-09T00:49:18.468Z,3.80
2018-09-09T00:51:52.573Z,3.10
2018-09-09T00:54:21.317Z,3.60
2018-09-09T00:56:50.268Z,3.62
2018-09-09T00:59:19.199Z,3.05
2018-09-09T01:01:48.093Z,3.70
2018-09-09T01:04:17.239Z,3.22
2018-09-09T01:06:46.134Z,3.47
2018-09-09T01:09:16.221Z,3.65
2018-09-09T01:11:45.057Z,3.55
2018-09-09T01:14:13.776Z,3.42
2018-09-09T01:16:42.497Z,3.72
2018-09-09T01:19:11.228Z,3.60
2018-09-09T01:21:39.932Z,3.75
2018-09-09T01:24:08.841Z,3.95
2018-09-09T01:26:37.840Z,4.72
2018-09-09T01:29:06.778Z,5.03
2018-09-09T01:31:35.783Z,5.25
2018-09-09T01:34:04.986Z,5.10
2018-09-09T01:36:33.965Z,6.10
2018-09-09T01:39:03.024Z,5.80
2018-09-09T01:41:31.806Z,5.17
2018-09-09T01:44:00.643Z,5.42
2018-09-09T01:46:29.593Z,5.92
2018-09-09T01:48:58.568Z,5.42
2018-09-09T01:51:27.317Z,5.33
2018-09-09T01:53:56.016Z,5.33
2018-09-09T01:56:24.898Z,5.55
2018-09-09T01:58:53.883Z,5.42
2018-09-09T02:01:22.634Z,5.80
2018-09-09T02:03:51.641Z,5.40
2018-09-09T02:06:20.401Z,6.00
2018-09-09T02:08:49.102Z,5.22
2018-09-09T02:11:17.889Z,4.97
2018-09-09T02:13:46.701Z,5.03
2018-09-09T02:16:15.474Z,5.42
2018-09-09T02:18:44.224Z,4.90
2018-09-09T02:21:12.922Z,5.08
2018-09-09T02:23:41.716Z,5.20
2018-09-09T02:26:10.516Z,5.25
2018-09-09T02:28:39.471Z,4.35
2018-09-09T02:31:08.176Z,4.55
2018-09-09T02:33:36.890Z,4.55
2018-09-09T02:36:05.625Z,4.55
2018-09-09T02:38:34.658Z,4.67
2018-09-09T02:41:04.024Z,4.78
2018-09-09T02:43:33.058Z,3.92
2018-09-09T02:46:01.854Z,4.65
2018-09-09T02:48:30.611Z,4.37
2018-09-09T02:50:59.302Z,4.67
2018-09-09T02:53:28.048Z,4.05
2018-09-09T02:55:57.071Z,4.10
2018-09-09T02:58:25.942Z,4.08
2018-09-09T03:00:55.129Z,4.10
2018-09-09T03:03:23.953Z,4.03
2018-09-09T03:05:52.720Z,4.17
2018-09-09T03:08:21.545Z,3.90
2018-09-09T03:10:54.762Z,3.60
2018-09-09T03:13:23.564Z,3.58
2018-09-09T03:15:52.307Z,3.58
2018-09-09T03:18:21.072Z,3.80
2018-09-09T03:20:49.897Z,3.52
2018-09-09T03:23:18.815Z,3.62
2018-09-09T03:25:47.606Z,3.85
2018-09-09T03:28:16.287Z,3.60
2018-09-09T03:30:45.053Z,3.35
2018-09-09T03:33:13.857Z,3.08
2018-09-09T03:35:42.549Z,3.80
2018-09-09T03:38:11.294Z,3.80
2018-09-09T03:40:40.230Z,3.05
2018-09-09T03:43:09.217Z,3.12
2018-09-09T03:45:38.120Z,3.60
2018-09-09T03:48:06.995Z,3.65
2018-09-09T03:50:35.960Z,2.90
2018-09-09T03:53:04.808Z,3.22
2018-09-09T03:55:33.761Z,3.22
2018-09-09T03:58:03.005Z,3.20
2018-09-09T04:00:31.890Z,3.20
2018-09-09T04:03:00.770Z,3.00
2018-09-09T04:05:29.610Z,2.98
2018-09-09T04:07:58.511Z,2.95
2018-09-09T04:10:27.605Z,3.27
2018-09-09T04:12:56.317Z,3.08
2018-09-09T04:15:25.195Z,2.60
2018-09-09T04:17:54.121Z,3.30
2018-09-09T04:20:23.074Z,2.83
2018-09-09T04:22:51.787Z,3.00
2018-09-09T04:25:20.690Z,2.85
2018-09-09T04:27:49.406Z,2.62
2018-09-09T04:30:18.118Z,3.02
2018-09-09T04:32:46.834Z,2.75
2018-09-09T04:35:15.602Z,2.70
2018-09-09T04:37:44.449Z,2.60
2018-09-09T04:40:13.260Z,2.80
2018-09-09T04:42:41.978Z,2.85
2018-09-09T04:45:10.760Z,2.58
2018-09-09T04:47:39.965Z,2.80
2018-09-09T04:50:08.793Z,2.65
2018-09-09T04:52:37.533Z,2.72
2018-09-09T04:55:06.416Z,2.37
2018-09-09T04:57:35.172Z,2.47
2018-09-09T05:00:04.267Z,2.45
2018-09-09T05:02:33.325Z,2.55
2018-09-09T05:05:02.090Z,2.22
2018-09-09T05:07:30.845Z,2.33
2018-09-09T05:09:59.945Z,2.85
2018-09-09T05:12:29.572Z,2.37
2018-09-09T05:14:58.348Z,2.25
2018-09-09T05:17:27.117Z,2.47
2018-09-09T05:19:55.893Z,2.37
2018-09-09T05:22:24.629Z,2.27
2018-09-09T05:24:53.351Z,2.25
2018-09-09T05:27:22.054Z,2.10
2018-09-09T05:29:50.804Z,2.12
2018-09-09T05:32:19.552Z,2.27
2018-09-09T05:34:48.347Z,2.10
2018-09-09T05:37:17.096Z,1.92
2018-09-09T05:39:45.910Z,2.10
2018-09-09T05:42:14.741Z,2.10
2018-09-09T05:44:44.038Z,2.08
2018-09-09T05:47:12.866Z,2.10
2018-09-09T05:49:41.639Z,2.40
2018-09-09T05:52:10.386Z,2.17
2018-09-09T05:54:39.114Z,2.10
2018-09-09T05:57:07.814Z,2.30
2018-09-09T05:59:36.734Z,2.27
2018-09-09T06:02:05.971Z,2.15
2018-09-09T06:04:34.757Z,1.92
2018-09-09T06:07:03.837Z,2.15
2018-09-09T06:09:32.638Z,2.30
2018-09-09T06:12:01.481Z,1.95
2018-09-09T06:14:30.230Z,2.17
2018-09-09T06:16:59.242Z,2.08
2018-09-09T06:19:28.133Z,1.75
2018-09-09T06:21:57.173Z,2.15
2018-09-09T06:24:26.048Z,1.95
2018-09-09T06:26:55.081Z,1.95
2018-09-09T06:29:24.205Z,2.17
2018-09-09T06:31:53.533Z,1.87
2018-09-09T06:34:22.359Z,2.00
2018-09-09T06:36:51.393Z,2.05
2018-09-09T06:39:20.257Z,2.30
2018-09-09T06:41:49.231Z,1.85
2018-09-09T06:44:18.029Z,1.85
2018-09-09T06:46:46.965Z,1.98
2018-09-09T06:49:15.923Z,1.77
2018-09-09T06:51:44.756Z,1.80
2018-09-09T06:54:13.853Z,1.70
2018-09-09T06:56:42.694Z,1.90
2018-09-09T06:59:11.596Z,1.90
2018-09-09T07:01:40.382Z,1.80
2018-09-09T07:04:09.173Z,1.85
2018-09-09T07:06:37.981Z,1.57
2018-09-09T07:09:07.971Z,1.90
2018-09-09T07:11:36.796Z,1.82
2018-09-09T07:14:05.753Z,1.40
2018-09-09T07:16:34.509Z,1.40
2018-09-09T07:19:03.543Z,1.77
2018-09-09T07:21:32.588Z,1.50
2018-09-09T07:24:01.789Z,1.40
2018-09-09T07:26:30.636Z,1.70
2018-09-09T07:28:59.415Z,1.50
2018-09-09T07:31:28.133Z,1.70
2018-09-09T07:33:56.991Z,1.82
2018-09-09T07:36:25.882Z,1.57
2018-09-09T07:38:54.683Z,1.60
2018-09-09T07:41:23.442Z,1.70
2018-09-09T07:43:52.761Z,1.80
2018-09-09T07:46:21.520Z,1.70
2018-09-09T07:48:50.345Z,1.72
2018-09-09T07:51:19.120Z,1.60
2018-09-09T07:53:48.013Z,1.55
2018-09-09T07:56:16.803Z,1.37
2018-09-09T07:58:45.851Z,1.47
2018-09-09T08:01:14.866Z,1.27
2018-09-09T08:03:43.628Z,1.47
2018-09-09T08:06:12.480Z,1.60
2018-09-09T08:08:41.344Z,1.50
2018-09-09T08:11:10.404Z,1.40
2018-09-09T08:13:39.143Z,1.50
2018-09-09T08:16:08.022Z,1.30
2018-09-09T08:18:36.843Z,1.40
2018-09-09T08:21:05.843Z,1.17
2018-09-09T08:23:34.613Z,1.30
2018-09-09T08:26:03.354Z,1.50
2018-09-09T08:28:32.125Z,1.50
2018-09-09T08:31:00.922Z,1.30
2018-09-09T08:33:29.676Z,1.30
2018-09-09T08:35:58.501Z,1.10
2018-09-09T08:38:27.260Z,1.40
2018-09-09T08:40:56.053Z,1.47
2018-09-09T08:43:25.007Z,1.40
2018-09-09T08:45:54.192Z,1.30
2018-09-09T08:48:23.222Z,1.37
2018-09-09T08:50:52.034Z,1.10
2018-09-09T08:53:20.912Z,1.30
2018-09-09T08:55:49.991Z,1.27
2018-09-09T08:58:19.262Z,1.57
2018-09-09T09:00:48.435Z,1.60
2018-09-09T09:03:17.452Z,1.47
2018-09-09T09:05:46.500Z,1.20
2018-09-09T09:08:15.524Z,1.20
2018-09-09T09:10:44.291Z,1.35
2018-09-09T09:13:13.834Z,1.37
2018-09-09T09:15:43.129Z,1.07
2018-09-09T09:18:12.080Z,1.10
2018-09-09T09:20:41.200Z,1.20
2018-09-09T09:23:10.180Z,1.25
2018-09-09T09:25:43.063Z,1.20
2018-09-09T09:28:12.114Z,0.90
2018-09-09T09:30:40.931Z,1.10
2018-09-09T09:33:09.944Z,1.10
2018-09-09T09:35:44.058Z,1.20
2018-09-09T09:38:13.018Z,1.30
2018-09-09T09:40:42.030Z,1.17
2018-09-09T09:43:11.292Z,1.10
2018-09-09T09:45:40.289Z,1.10
2018-09-09T09:48:09.377Z,1.10
2018-09-09T09:50:38.492Z,1.12
2018-09-09T09:53:07.492Z,0.90
2018-09-09T09:55:36.314Z,1.10
2018-09-09T09:58:05.233Z,1.00
2018-09-09T10:00:39.237Z,1.10
2018-09-09T10:03:07.993Z,1.12
2018-09-09T10:05:36.943Z,1.00
2018-09-09T10:08:06.046Z,0.90
2018-09-09T10:10:34.827Z,1.05
2018-09-09T10:13:04.189Z,0.98
2018-09-09T10:15:32.935Z,1.02
2018-09-09T10:18:01.812Z,0.85
2018-09-09T10:20:30.708Z,1.12
2018-09-09T10:22:59.433Z,0.85
2018-09-09T10:25:28.153Z,1.05
2018-09-09T10:27:56.951Z,1.10
2018-09-09T10:30:25.741Z,1.12
2018-09-09T10:32:54.573Z,0.90
2018-09-09T10:35:23.398Z,1.02
2018-09-09T10:37:52.185Z,0.80
2018-09-09T10:40:20.927Z,1.10
2018-09-09T10:42:49.780Z,0.82
2018-09-09T10:45:18.592Z,0.95
2018-09-09T10:47:47.352Z,0.80
2018-09-09T10:50:16.138Z,0.90
2018-09-09T10:52:44.901Z,1.10
2018-09-09T10:55:13.749Z,1.20
2018-09-09T10:57:42.596Z,1.20
2018-09-09T11:00:11.349Z,1.35
2018-09-09T11:02:40.092Z,1.20
2018-09-09T11:05:08.873Z,1.15
2018-09-09T11:07:37.649Z,1.30
2018-09-09T11:10:06.521Z,1.20
2018-09-09T11:12:35.339Z,1.40
2018-09-09T11:15:04.582Z,1.10
2018-09-09T11:17:33.571Z,1.15
2018-09-09T11:20:02.323Z,1.00
2018-09-09T11:22:31.144Z,1.15
2018-09-09T11:25:00.254Z,1.17
2018-09-09T11:27:29.049Z,1.32
2018-09-09T11:29:57.804Z,1.10
2018-09-09T11:32:26.633Z,1.40
2018-09-09T11:34:55.416Z,1.40
2018-09-09T11:37:24.243Z,1.52
2018-09-09T11:39:53.052Z,1.12
2018-09-09T11:42:21.848Z,1.47
2018-09-09T11:44:50.704Z,1.30
2018-09-09T11:47:19.606Z,1.10
2018-09-09T11:49:48.497Z,1.17
2018-09-09T11:52:17.543Z,1.12
2018-09-09T11:54:46.546Z,1.20
2018-09-09T11:57:15.396Z,1.20
2018-09-09T11:59:44.253Z,1.37
2018-09-09T12:02:13.058Z,1.15
2018-09-09T12:04:41.797Z,1.20
2018-09-09T12:07:10.571Z,1.20
2018-09-09T12:09:39.350Z,1.22
2018-09-09T12:12:08.075Z,1.20
2018-09-09T12:14:36.793Z,1.27
2018-09-09T12:17:06.595Z,1.10
2018-09-09T12:19:35.350Z,1.10
2018-09-09T12:22:04.163Z,1.10
2018-09-09T12:24:33.093Z,1.30
2018-09-09T12:27:01.866Z,1.30
2018-09-09T12:29:30.877Z,1.20
2018-09-09T12:31:59.602Z,1.20
2018-09-09T12:34:28.347Z,1.55
2018-09-09T12:36:57.125Z,0.90
2018-09-09T12:39:25.903Z,1.25
2018-09-09T12:41:54.658Z,1.40
2018-09-09T12:44:28.535Z,1.20
2018-09-09T12:47:03.177Z,1.47
2018-09-09T12:49:32.043Z,1.32
2018-09-09T12:52:00.826Z,1.10
2018-09-09T12:54:29.554Z,1.12
2018-09-09T12:56:58.337Z,1.30
2018-09-09T12:59:27.374Z,1.17
2018-09-09T13:01:56.081Z,1.02
2018-09-09T13:04:24.800Z,1.15
2018-09-09T13:06:53.653Z,1.10
2018-09-09T13:09:22.451Z,1.10
2018-09-09T13:11:51.193Z,1.20
2018-09-09T13:14:20.030Z,1.05
2018-09-09T13:16:48.891Z,0.98
2018-09-09T13:19:17.687Z,0.98
2018-09-09T13:21:46.497Z,1.22
2018-09-09T13:24:15.263Z,1.22
2018-09-09T13:26:44.024Z,1.32
2018-09-09T13:29:12.846Z,1.67
2018-09-09T13:31:41.692Z,1.20
2018-09-09T13:34:10.470Z,1.42
2018-09-09T13:36:39.277Z,1.25
2018-09-09T13:39:08.714Z,1.42
2018-09-09T13:41:37.590Z,1.67
2018-09-09T13:44:06.904Z,1.60
2018-09-09T13:46:35.718Z,1.10
2018-09-09T13:49:04.638Z,1.35
2018-09-09T13:51:33.488Z,1.50
2018-09-09T13:54:02.294Z,1.42
2018-09-09T13:56:31.042Z,1.30
2018-09-09T13:58:59.903Z,1.30
2018-09-09T14:01:28.798Z,1.35
2018-09-09T14:03:57.692Z,1.10
2018-09-09T14:06:26.474Z,1.52
2018-09-09T14:08:55.251Z,1.40
2018-09-09T14:11:24.122Z,1.55
2018-09-09T14:13:52.896Z,1.30
2018-09-09T14:16:21.764Z,1.25
2018-09-09T14:18:50.613Z,1.20
2018-09-09T14:21:19.424Z,1.30
2018-09-09T14:23:48.246Z,1.20
2018-09-09T14:26:17.132Z,1.40
2018-09-09T14:28:45.948Z,1.17
2018-09-09T14:31:14.791Z,1.65
2018-09-09T14:33:43.644Z,1.57
2018-09-09T14:36:12.492Z,1.40
2018-09-09T14:38:41.307Z,1.67
2018-09-09T14:41:10.118Z,2.05
2018-09-09T14:43:38.912Z,2.20
2018-09-09T14:46:07.784Z,2.00
2018-09-09T14:48:36.537Z,1.67
2018-09-09T14:51:05.319Z,1.75
2018-09-09T14:53:34.144Z,2.12
2018-09-09T14:56:03.021Z,1.87
2018-09-09T14:58:31.843Z,1.40
2018-09-09T15:01:00.794Z,1.12
2018-09-09T15:03:29.511Z,2.12
2018-09-09T15:05:58.336Z,1.32
2018-09-09T15:08:27.087Z,1.50
2018-09-09T15:10:55.869Z,1.20
2018-09-09T15:13:24.601Z,1.12
2018-09-09T15:15:53.404Z,1.20
2018-09-09T15:18:22.186Z,1.10
2018-09-09T15:21:08.999Z,1.57
2018-09-09T15:23:38.099Z,1.00
2018-09-09T15:26:07.114Z,1.20
2018-09-09T15:28:35.913Z,1.35
2018-09-09T15:31:04.858Z,1.00
2018-09-09T15:33:33.635Z,1.50
2018-09-09T15:36:02.588Z,0.82
2018-09-09T15:38:31.333Z,1.25
2018-09-09T15:41:00.093Z,1.17
2018-09-09T15:43:28.847Z,1.00
2018-09-09T15:45:57.650Z,1.10
2018-09-09T15:48:26.396Z,1.55
2018-09-09T15:50:55.220Z,1.20
2018-09-09T15:53:23.985Z,0.93
2018-09-09T15:55:52.773Z,1.17
2018-09-09T15:58:21.559Z,1.35
2018-09-09T16:00:50.337Z,0.88
2018-09-09T16:03:19.173Z,1.17
2018-09-09T16:05:47.917Z,0.98
2018-09-09T16:08:16.746Z,1.10
2018-09-09T16:10:45.538Z,1.67
2018-09-09T16:13:14.305Z,0.80
2018-09-09T16:15:43.086Z,1.10
2018-09-09T16:18:11.934Z,1.00
2018-09-09T16:20:40.703Z,0.90
2018-09-09T16:23:10.117Z,0.93
2018-09-09T16:25:38.874Z,0.95
2018-09-09T16:28:07.707Z,1.17
2018-09-09T16:30:36.507Z,1.02
2018-09-09T16:33:05.261Z,1.17
2018-09-09T16:35:34.114Z,0.90
2018-09-09T16:38:03.072Z,1.12
2018-09-09T16:40:31.851Z,0.80
2018-09-09T16:43:00.714Z,0.95
2018-09-09T16:45:29.541Z,0.90
2018-09-09T16:47:58.349Z,0.90
2018-09-09T16:50:27.115Z,1.00
2018-09-09T16:52:55.979Z,1.10
2018-09-09T16:55:24.733Z,1.35
2018-09-09T16:57:53.587Z,0.90
2018-09-09T17:00:22.403Z,0.80
2018-09-09T17:02:51.244Z,0.90
2018-09-09T17:05:20.153Z,0.80
2018-09-09T17:07:48.960Z,0.88
2018-09-09T17:10:17.735Z,0.90
2018-09-09T17:12:46.514Z,1.00
2018-09-09T17:15:15.290Z,0.85
2018-09-09T17:17:44.096Z,0.95
2018-09-09T17:20:12.877Z,0.80
2018-09-09T17:22:41.994Z,0.70
2018-09-09T17:25:10.753Z,0.98
2018-09-09T17:27:39.527Z,0.90
2018-09-09T17:30:08.359Z,1.02
2018-09-09T17:32:37.279Z,1.00
2018-09-09T17:35:06.154Z,0.80
2018-09-09T17:37:34.968Z,0.88
2018-09-09T17:40:03.818Z,0.95
2018-09-09T17:42:32.678Z,0.88
2018-09-09T17:45:01.494Z,0.90
2018-09-09T17:47:30.325Z,1.10
2018-09-09T17:49:59.119Z,1.07
2018-09-09T17:52:28.071Z,0.80
2018-09-09T17:54:56.940Z,1.05
2018-09-09T17:57:25.697Z,1.10
2018-09-09T17:59:54.508Z,1.02
2018-09-09T18:02:23.291Z,0.75
2018-09-09T18:04:52.037Z,0.78
2018-09-09T18:07:20.838Z,1.30
2018-09-09T18:09:49.736Z,1.00
2018-09-09T18:12:18.489Z,0.80
2018-09-09T18:14:47.286Z,1.05
2018-09-09T18:17:16.120Z,0.80
2018-09-09T18:19:44.910Z,0.95
2018-09-09T18:22:13.815Z,1.00
2018-09-09T18:24:42.641Z,0.98
2018-09-09T18:27:11.415Z,1.02
2018-09-09T18:29:40.199Z,0.88
2018-09-09T18:32:08.991Z,0.82
2018-09-09T18:34:37.747Z,1.00
2018-09-09T18:37:06.568Z,0.80
2018-09-09T18:39:35.403Z,1.00
2018-09-09T18:42:04.182Z,0.80
2018-09-09T18:44:32.938Z,1.05
2018-09-09T18:47:01.738Z,1.00
2018-09-09T18:49:30.569Z,0.85
2018-09-09T18:51:59.333Z,0.90
2018-09-09T18:54:28.103Z,0.90
2018-09-09T18:56:56.880Z,0.93
2018-09-09T18:59:25.721Z,0.93
2018-09-09T19:01:54.498Z,0.95
2018-09-09T19:04:23.266Z,1.00
2018-09-09T19:06:52.150Z,0.90
2018-09-09T19:09:20.929Z,1.00
2018-09-09T19:11:49.688Z,1.10
2018-09-09T19:14:18.469Z,1.00
2018-09-09T19:16:47.242Z,1.00
2018-09-09T19:19:16.050Z,1.10
2018-09-09T19:21:44.837Z,1.32
2018-09-09T19:24:13.701Z,1.00
2018-09-09T19:26:42.686Z,1.20
2018-09-09T19:29:11.494Z,0.93
2018-09-09T19:31:40.296Z,1.05
2018-09-09T19:34:09.121Z,1.00
2018-09-09T19:36:38.041Z,0.90
2018-09-09T19:39:09.179Z,1.10
2018-09-09T19:41:38.030Z,1.00
2018-09-09T19:44:07.227Z,1.15
2018-09-09T19:46:36.068Z,1.12
2018-09-09T19:49:05.770Z,1.02
2018-09-09T19:51:35.098Z,1.00
2018-09-09T19:54:04.182Z,0.80
2018-09-09T19:56:33.017Z,1.20
2018-09-09T19:59:02.266Z,1.00
2018-09-09T20:01:31.170Z,1.02
2018-09-09T20:03:59.975Z,1.02
2018-09-09T20:06:28.780Z,1.40
2018-09-09T20:08:57.601Z,1.37
2018-09-09T20:11:26.405Z,1.35
2018-09-09T20:13:55.303Z,1.62
2018-09-09T20:16:24.152Z,1.02
2018-09-09T20:18:53.066Z,1.17
2018-09-09T20:21:21.886Z,1.42
2018-09-09T20:23:50.734Z,1.10
2018-09-09T20:26:19.626Z,1.30
2018-09-09T20:28:48.468Z,1.20
2018-09-09T20:31:17.468Z,1.20
2018-09-09T20:33:47.281Z,1.10
2018-09-09T20:36:16.152Z,1.60
2018-09-09T20:38:45.104Z,1.65
2018-09-09T20:41:13.888Z,1.22
2018-09-09T20:43:42.705Z,1.25
2018-09-09T20:46:11.697Z,1.57
2018-09-09T20:48:40.552Z,1.60
2018-09-09T20:51:09.543Z,1.30
2018-09-09T20:53:39.248Z,1.67
2018-09-09T20:56:08.134Z,1.37
2018-09-09T20:58:37.313Z,1.57
2018-09-09T21:01:06.658Z,1.50
2018-09-09T21:03:36.521Z,1.62
2018-09-09T21:06:05.372Z,1.82
2018-09-09T21:08:34.338Z,1.50
2018-09-09T21:11:03.208Z,1.40
2018-09-09T21:13:32.058Z,1.47
2018-09-09T21:16:00.864Z,1.42
2018-09-09T21:18:30.388Z,1.40
2018-09-09T21:20:59.251Z,1.70
2018-09-09T21:23:28.095Z,1.40
2018-09-09T21:25:57.649Z,1.10
2018-09-09T21:28:26.568Z,2.25
2018-09-09T21:30:55.463Z,2.10
2018-09-09T21:33:24.339Z,2.10
2018-09-09T21:35:53.434Z,2.08
2018-09-09T21:38:22.179Z,1.75
2018-09-09T21:40:50.952Z,1.62
2018-09-09T21:43:19.854Z,1.77
2018-09-09T21:45:49.218Z,1.65
2018-09-09T21:48:18.257Z,2.25
2018-09-09T21:50:47.835Z,2.00
2018-09-09T21:53:16.938Z,2.00
2018-09-09T21:55:45.709Z,1.45
2018-09-09T21:58:14.528Z,1.82
2018-09-09T22:00:48.827Z,1.87
2018-09-09T22:03:17.557Z,1.98
2018-09-09T22:05:46.579Z,2.00
2018-09-09T22:08:15.732Z,1.82
2018-09-09T22:10:44.772Z,1.80
2018-09-09T22:13:13.688Z,2.12
2018-09-09T22:15:42.809Z,2.20
2018-09-09T22:18:11.901Z,1.75
2018-09-09T22:20:40.888Z,1.37
2018-09-09T22:23:10.028Z,1.77
2018-09-09T22:25:39.040Z,1.60
2018-09-09T22:28:08.253Z,1.40
2018-09-09T22:30:37.122Z,1.42
2018-09-09T22:33:06.136Z,1.60
2018-09-09T22:35:35.223Z,1.50
2018-09-09T22:38:04.316Z,1.37
2018-09-09T22:40:33.265Z,1.62
2018-09-09T22:43:02.033Z,1.50
2018-09-09T22:45:30.791Z,1.65
2018-09-09T22:47:59.782Z,1.30
2018-09-09T22:50:28.565Z,1.65
2018-09-09T22:52:57.925Z,1.37
2018-09-09T22:55:26.759Z,1.37
2018-09-09T22:57:55.496Z,1.45
2018-09-09T23:00:24.589Z,1.30
2018-09-09T23:02:53.438Z,1.60
2018-09-09T23:05:22.218Z,1.37
2018-09-09T23:07:51.179Z,1.50
2018-09-09T23:10:20.154Z,1.40
2018-09-09T23:12:48.858Z,1.35
2018-09-09T23:15:21.121Z,1.22
2018-09-09T23:17:50.267Z,1.45
2018-09-09T23:20:19.211Z,1.40
2018-09-09T23:22:48.358Z,1.80
2018-09-09T23:25:17.089Z,1.20
2018-09-09T23:27:45.863Z,1.37
2018-09-09T23:30:14.652Z,1.30
2018-09-09T23:32:43.426Z,1.17
2018-09-09T23:35:12.509Z,1.40
2018-09-09T23:37:41.425Z,1.12
2018-09-09T23:40:10.225Z,1.05
2018-09-09T23:42:38.951Z,1.32
2018-09-09T23:45:07.977Z,1.10
2018-09-09T23:47:36.964Z,1.25
2018-09-09T23:50:05.817Z,1.05
2018-09-09T23:52:34.676Z,1.22
2018-09-09T23:55:03.686Z,1.10
2018-09-09T23:57:32.650Z,1.42
